Time;durP1;ratioP1;P1;durP2;ratioP2;P2;SDS_P1;SDS_P2;PMS_P1;PMS_P2;Temp;Humidity;BMP_temperature;BMP_pressure;BME280_temperature;BME280_humidity;BME280_pressure;Samples;Min_cycle;Max_cycle;Signal;HPM_P1;HPM_P2
2022/01/18 00:00:48;;;;;;;;;;;;;;;11.49;54.07;102306.78;4981613;27;98085;-64
2022/01/18 00:03:14;;;;;;;;;;;;;;;11.48;53.84;102297.03;4982596;28;98267;-65
2022/01/18 00:05:43;;;;;;;;;;;;;;;11.48;54.16;102299.72;4981468;28;99717;-64
2022/01/18 00:08:09;;;;;;;;;;;;;;;11.48;53.65;102298.91;4982173;27;98200;-64
2022/01/18 00:10:35;;;;;;;;;;;;;;;11.47;53.87;102294.53;4981321;28;128170;-64
2022/01/18 00:15:38;;;;;;;;;;;;;;;11.45;53.45;102308.28;4980578;27;98355;-57
2022/01/18 00:20:46;;;;;;;;;;;;;;;11.44;53.79;102314.75;4982061;27;97958;-65
2022/01/18 00:23:12;;;;;;;;;;;;;;;11.44;53.70;102319.31;4982466;27;97847;-64
2022/01/18 00:25:41;;;;;;;;;;;;;;;11.43;53.59;102321.16;4981329;27;98740;-57
2022/01/18 00:28:07;;;;;;;;;;;;;;;11.42;53.91;102319.53;4981884;28;98815;-65
2022/01/18 00:35:43;;;;;;;;;;;;;;;11.40;53.85;102316.25;4980875;27;98068;-57
2022/01/18 00:38:32;;;;;;;;;;;;;;;11.39;53.73;102322.69;4980978;27;99180;-64
2022/01/18 00:40:59;;;;;;;;;;;;;;;11.38;53.65;102318.34;4980996;28;97825;-57
2022/01/18 00:43:25;;;;;;;;;;;;;;;11.39;53.65;102321.88;4981674;27;111609;-64
2022/01/18 00:45:50;;;;;;;;;;;;;;;11.39;53.86;102338.06;4981295;28;113581;-57
2022/01/18 00:48:17;;;;;;;;;;;;;;;11.39;53.75;102340.75;4979994;28;128821;-64
2022/01/18 00:50:44;;;;;;;;;;;;;;;11.39;53.68;102343.47;4981109;27;97916;-64
2022/01/18 00:53:13;;;;;;;;;;;;;;;11.38;53.53;102347.22;4981393;27;98383;-64
2022/01/18 00:55:50;;;;;;;;;;;;;;;11.37;53.63;102356.38;4981231;27;98585;-57
2022/01/18 00:58:16;;;;;;;;;;;;;;;11.37;53.36;102364.47;4981424;27;98751;-64
2022/01/18 01:00:42;;;;;;;;;;;;;;;11.36;53.90;102360.97;4981006;28;125567;-57
2022/01/18 01:03:08;;;;;;;;;;;;;;;11.36;53.49;102362.81;4981344;28;98255;-64
2022/01/18 01:05:34;;;;;;;;;;;;;;;11.34;53.73;102363.06;4980507;28;128142;-65
2022/01/18 01:08:01;;;;;;;;;;;;;;;11.34;53.53;102373.03;4981550;27;98157;-57
2022/01/18 01:10:27;;;;;;;;;;;;;;;11.32;53.25;102373.28;4979369;27;119516;-65
2022/01/18 01:12:53;;;;;;;;;;;;;;;11.32;53.46;102381.38;4980942;28;101996;-57
2022/01/18 01:15:21;;;;;;;;;;;;;;;11.33;53.87;102384.88;4979760;28;116736;-57
2022/01/18 01:18:11;;;;;;;;;;;;;;;11.31;53.74;102388.63;4980046;28;98233;-57
2022/01/18 01:42:43;;;;;;;;;;;;;;;11.25;53.24;102384.13;4976887;28;97833;-56
2022/01/18 01:45:11;;;;;;;;;;;;;;;11.24;53.27;102387.91;4981053;27;98079;-57
2022/01/18 01:47:38;;;;;;;;;;;;;;;11.23;53.55;102383.53;4980748;28;98486;-64
2022/01/18 01:50:08;;;;;;;;;;;;;;;11.23;53.23;102391.63;4979990;27;99161;-57
2022/01/18 01:52:34;;;;;;;;;;;;;;;11.23;53.68;102394.31;4977570;28;98639;-64
2022/01/18 01:55:00;;;;;;;;;;;;;;;11.23;53.48;102407.00;4980638;27;98156;-57
2022/01/18 01:57:26;;;;;;;;;;;;;;;11.22;53.45;102398.06;4979022;28;128832;-64
2022/01/18 01:59:52;;;;;;;;;;;;;;;11.22;53.44;102403.47;4980319;27;98361;-58
2022/01/18 02:02:17;;;;;;;;;;;;;;;11.22;53.21;102405.34;4980182;28;98412;-57
2022/01/18 02:04:43;;;;;;;;;;;;;;;11.20;53.65;102404.75;4979778;27;97791;-64
2022/01/18 02:07:09;;;;;;;;;;;;;;;11.21;53.70;102414.50;4979628;28;103581;-57
2022/01/18 02:09:35;;;;;;;;;;;;;;;11.21;53.51;102409.94;4978994;28;105258;-64
2022/01/18 02:12:02;;;;;;;;;;;;;;;11.21;52.98;102409.13;4978510;28;126651;-57
2022/01/18 02:14:30;;;;;;;;;;;;;;;11.20;53.61;102400.19;4980807;27;97882;-57
2022/01/18 02:22:25;;;;;;;;;;;;;;;11.17;53.56;102399.81;4968861;28;97931;-57
2022/01/18 02:24:51;;;;;;;;;;;;;;;11.16;53.16;102393.59;4980317;27;98188;-57
2022/01/18 02:27:17;;;;;;;;;;;;;;;11.15;53.47;102394.63;4979209;28;128823;-57
2022/01/18 02:29:43;;;;;;;;;;;;;;;11.14;52.98;102392.97;4979174;27;99722;-64
2022/01/18 02:32:09;;;;;;;;;;;;;;;11.15;53.07;102396.50;4979954;27;97880;-57
2022/01/18 02:34:35;;;;;;;;;;;;;;;11.13;53.59;102391.34;4978466;28;114205;-57
2022/01/18 02:37:03;;;;;;;;;;;;;;;11.14;53.26;102378.66;4979157;27;99125;-57
2022/01/18 02:39:29;;;;;;;;;;;;;;;11.14;52.96;102375.97;4980101;27;98589;-57
2022/01/18 02:42:02;;;;;;;;;;;;;;;11.12;53.43;102373.50;4982692;28;120461;-58
2022/01/18 02:44:28;;;;;;;;;;;;;;;11.11;53.43;102369.13;4983318;27;97873;-57
2022/01/18 02:46:54;;;;;;;;;;;;;;;11.11;52.76;102362.91;4983730;28;98563;-57
2022/01/18 02:49:20;;;;;;;;;;;;;;;11.10;53.07;102366.66;4983017;27;99400;-57
2022/01/18 02:51:46;;;;;;;;;;;;;;;11.09;52.93;102375.81;4982056;28;125802;-57
2022/01/18 02:54:14;;;;;;;;;;;;;;;11.08;53.12;102377.66;4982288;27;113492;-57
2022/01/18 02:56:49;;;;;;;;;;;;;;;11.07;53.32;102374.16;4982120;27;113374;-58
2022/01/18 02:59:24;;;;;;;;;;;;;;;11.08;53.33;102366.88;4983346;28;98753;-64
2022/01/18 03:04:39;;;;;;;;;;;;;;;11.08;53.46;102358.78;4981279;27;98117;-65
2022/01/18 03:07:05;;;;;;;;;;;;;;;11.06;53.37;102366.28;4983244;27;98123;-64
2022/01/18 03:09:31;;;;;;;;;;;;;;;11.05;53.26;102361.94;4982605;28;98571;-64
2022/01/18 03:11:57;;;;;;;;;;;;;;;11.05;52.83;102365.47;4963898;28;113814;-64
2022/01/18 03:14:23;;;;;;;;;;;;;;;11.04;53.48;102373.78;4981810;27;117968;-65
2022/01/18 03:16:49;;;;;;;;;;;;;;;11.02;53.08;102370.47;4982237;28;127386;-57
2022/01/18 03:19:15;;;;;;;;;;;;;;;11.03;52.78;102369.44;4983350;28;98283;-64
2022/01/18 03:21:41;;;;;;;;;;;;;;;11.03;53.17;102366.72;4982599;28;98344;-57
2022/01/18 03:29:44;;;;;;;;;;;;;;;11.01;53.39;102371.53;4980874;28;98183;-65
2022/01/18 03:32:10;;;;;;;;;;;;;;;11.02;52.87;102381.28;4981726;27;126150;-64
2022/01/18 03:34:36;;;;;;;;;;;;;;;11.02;52.81;102381.28;5013962;27;117678;-57
2022/01/18 03:37:02;;;;;;;;;;;;;;;11.02;53.01;102383.97;4981527;28;127657;-57
2022/01/18 03:39:28;;;;;;;;;;;;;;;11.01;53.20;102382.34;4981110;28;121506;-56
2022/01/18 03:41:57;;;;;;;;;;;;;;;11.01;53.28;102385.03;4983240;28;109038;-65
2022/01/18 03:44:25;;;;;;;;;;;;;;;11.01;53.36;102388.56;5015003;27;98121;-64
2022/01/18 03:46:53;;;;;;;;;;;;;;;11.01;53.22;102402.03;4982870;27;98911;-65
2022/01/18 03:49:20;;;;;;;;;;;;;;;11.01;53.03;102401.22;4982792;28;98809;-64
2022/01/18 03:51:46;;;;;;;;;;;;;;;11.01;53.09;102418.25;4980793;27;98292;-56
2022/01/18 03:54:14;;;;;;;;;;;;;;;11.01;53.40;102415.53;4981431;28;118346;-56
2022/01/18 03:56:40;;;;;;;;;;;;;;;11.00;52.86;102424.69;5013646;27;99657;-64
2022/01/18 03:59:06;;;;;;;;;;;;;;;11.01;53.06;102431.72;4980657;27;128425;-64
2022/01/18 04:01:32;;;;;;;;;;;;;;;11.01;53.31;102430.91;4981576;28;101863;-64
2022/01/18 04:03:59;;;;;;;;;;;;;;;11.01;53.53;102423.63;4981246;28;112473;-64
2022/01/18 04:06:25;;;;;;;;;;;;;;;11.01;52.85;102426.34;4981975;27;98497;-64
2022/01/18 04:08:50;;;;;;;;;;;;;;;11.01;53.35;102426.34;4982006;27;98353;-64
2022/01/18 04:11:16;;;;;;;;;;;;;;;11.01;53.05;102428.22;4981643;27;127391;-63
2022/01/18 04:13:42;;;;;;;;;;;;;;;11.01;53.04;102422.81;4981829;27;116043;-64
2022/01/18 04:16:08;;;;;;;;;;;;;;;11.01;53.01;102420.94;4980749;28;128488;-57
2022/01/18 04:27:01;;;;;;;;;;;;;;;10.98;53.21;102432.16;4978629;28;98016;-64
2022/01/18 04:29:27;;;;;;;;;;;;;;;10.99;52.73;102431.13;4981529;27;98610;-64
2022/01/18 04:31:53;;;;;;;;;;;;;;;10.98;52.90;102429.47;4981336;27;97795;-63
2022/01/18 04:34:19;;;;;;;;;;;;;;;10.97;53.00;102441.31;4981164;27;97930;-56
2022/01/18 04:36:48;;;;;;;;;;;;;;;10.98;53.18;102439.44;4981278;27;98263;-63
2022/01/18 04:39:14;;;;;;;;;;;;;;;10.96;52.97;102431.56;4980569;27;98784;-57
2022/01/18 04:41:40;;;;;;;;;;;;;;;10.96;53.24;102436.94;4981000;27;97951;-55
2022/01/18 04:48:23;;;;;;;;;;;;;;;10.97;52.79;102437.81;4981199;28;117472;-56
2022/01/18 04:49:36;;;;;;;;;;;;;;;10.95;52.85;102451.50;4980211;28;98166;-56
2022/01/18 04:52:02;;;;;;;;;;;;;;;10.96;52.70;102452.31;4980996;28;126468;-63
2022/01/18 04:54:30;;;;;;;;;;;;;;;10.94;52.63;102459.81;4980107;27;109583;-64
2022/01/18 04:59:21;;;;;;;;;;;;;;;10.94;52.76;102452.56;4977598;27;116181;-57
2022/01/18 05:01:50;;;;;;;;;;;;;;;10.93;52.76;102450.09;4979517;28;126484;-56
2022/01/18 05:04:15;;;;;;;;;;;;;;;10.93;53.17;102460.88;4980680;27;97941;-56
2022/01/18 05:06:43;;;;;;;;;;;;;;;10.93;53.09;102471.69;4979863;28;128207;-56
2022/01/18 05:09:11;;;;;;;;;;;;;;;10.92;52.86;102470.81;4980617;27;97789;-57
2022/01/18 05:11:47;;;;;;;;;;;;;;;10.91;52.94;102465.66;4981231;27;98624;-62
2022/01/18 05:14:27;;;;;;;;;;;;;;;10.90;52.70;102472.94;4981323;28;97843;-64
2022/01/18 05:17:35;;;;;;;;;;;;;;;10.92;53.03;102483.50;4981227;27;98511;-56
2022/01/18 05:19:55;;;;;;;;;;;;;;;10.91;52.83;102484.53;4980511;28;99461;-56
2022/01/18 05:25:06;;;;;;;;;;;;;;;10.91;52.89;102474.56;4979883;28;98028;-64
2022/01/18 05:27:32;;;;;;;;;;;;;;;10.90;53.12;102470.22;4979305;27;125174;-64
2022/01/18 05:29:58;;;;;;;;;;;;;;;10.91;52.87;102466.47;4980817;27;127371;-57
2022/01/18 05:32:23;;;;;;;;;;;;;;;10.90;52.70;102478.31;4980175;28;115049;-64
2022/01/18 05:34:49;;;;;;;;;;;;;;;10.91;52.65;102476.44;4979277;27;116487;-56
2022/01/18 05:37:16;;;;;;;;;;;;;;;10.89;53.12;102479.38;4980944;28;98463;-64
2022/01/18 05:39:42;;;;;;;;;;;;;;;10.90;52.63;102475.63;4977548;28;99175;-64
2022/01/18 05:42:08;;;;;;;;;;;;;;;10.90;53.05;102472.94;4980126;27;98551;-56
2022/01/18 05:44:34;;;;;;;;;;;;;;;10.89;52.80;102471.28;4979806;28;109708;-64
2022/01/18 05:47:00;;;;;;;;;;;;;;;10.90;52.79;102480.19;4979604;28;98502;-62
2022/01/18 05:49:26;;;;;;;;;;;;;;;10.90;53.05;102474.81;4976987;27;127432;-64
2022/01/18 05:51:52;;;;;;;;;;;;;;;10.91;52.70;102484.53;4956860;28;124524;-64
2022/01/18 05:54:18;;;;;;;;;;;;;;;10.90;52.89;102491.81;4974266;27;115879;-64
2022/01/18 05:56:44;;;;;;;;;;;;;;;10.91;52.81;102488.06;4973489;28;98655;-64
2022/01/18 05:59:12;;;;;;;;;;;;;;;10.92;52.78;102486.19;4975825;28;128164;-64
2022/01/18 06:01:47;;;;;;;;;;;;;;;10.92;52.43;102484.31;4977092;28;98026;-64
2022/01/18 06:07:02;;;;;;;;;;;;;;;10.92;52.64;102496.97;4955943;28;98608;-64
2022/01/18 06:09:28;;;;;;;;;;;;;;;10.93;52.32;102498.66;4976231;28;98493;-64
2022/01/18 06:11:54;;;;;;;;;;;;;;;10.93;52.72;102490.56;4973791;28;98431;-64
2022/01/18 06:14:20;;;;;;;;;;;;;;;10.93;52.98;102490.56;4976436;27;97783;-64
2022/01/18 06:16:46;;;;;;;;;;;;;;;10.93;52.37;102493.25;4979279;28;126030;-64
2022/01/18 06:19:12;;;;;;;;;;;;;;;10.95;52.63;102502.75;4978453;28;126739;-64
2022/01/18 06:21:38;;;;;;;;;;;;;;;10.95;52.31;102502.75;4978988;27;99320;-64
2022/01/18 06:24:04;;;;;;;;;;;;;;;10.98;53.12;102506.91;4980582;27;98697;-64
2022/01/18 06:26:30;;;;;;;;;;;;;;;10.99;52.53;102514.78;4961300;28;98700;-64
2022/01/18 06:28:56;;;;;;;;;;;;;;;10.99;52.75;102500.47;4979828;28;114328;-64
2022/01/18 06:31:22;;;;;;;;;;;;;;;11.01;52.89;102506.47;4979042;27;97916;-64
2022/01/18 06:33:48;;;;;;;;;;;;;;;11.01;52.55;102518.09;4979415;28;119497;-64
2022/01/18 06:36:14;;;;;;;;;;;;;;;11.02;52.48;102524.31;4977823;27;128328;-64
2022/01/18 06:38:40;;;;;;;;;;;;;;;11.03;52.83;102515.97;4978663;28;126449;-64
2022/01/18 06:41:06;;;;;;;;;;;;;;;11.03;52.68;102529.47;4979163;28;127700;-64
2022/01/18 06:43:32;;;;;;;;;;;;;;;11.06;52.89;102537.13;4978496;28;97849;-64
2022/01/18 06:45:58;;;;;;;;;;;;;;;11.06;52.61;102542.53;4976501;27;127017;-64
2022/01/18 06:48:24;;;;;;;;;;;;;;;11.10;52.60;102552.91;4979968;28;97834;-65
2022/01/18 06:50:50;;;;;;;;;;;;;;;11.10;52.71;102550.19;4977483;27;127182;-64
2022/01/18 06:53:16;;;;;;;;;;;;;;;11.11;52.48;102557.25;4979052;28;117705;-65
2022/01/18 06:55:42;;;;;;;;;;;;;;;11.11;52.45;102552.66;4979301;27;98387;-64
2022/01/18 06:58:08;;;;;;;;;;;;;;;11.12;52.62;102540.84;4978250;28;110330;-65
2022/01/18 07:00:34;;;;;;;;;;;;;;;11.14;52.52;102546.00;4977181;27;102388;-61
2022/01/18 07:03:00;;;;;;;;;;;;;;;11.15;52.43;102545.78;4980339;28;97940;-63
2022/01/18 07:05:26;;;;;;;;;;;;;;;11.16;52.79;102560.09;4976221;27;128983;-64
2022/01/18 07:07:52;;;;;;;;;;;;;;;11.18;52.35;102564.25;4979739;27;98458;-64
2022/01/18 07:10:18;;;;;;;;;;;;;;;11.19;52.18;102573.16;4978677;28;127293;-56
2022/01/18 07:12:44;;;;;;;;;;;;;;;11.20;52.86;102577.50;4979860;27;98077;-57
2022/01/18 07:15:10;;;;;;;;;;;;;;;11.23;52.60;102571.66;4979789;27;98322;-64
2022/01/18 07:17:40;;;;;;;;;;;;;;;11.24;52.16;102567.94;4978842;28;99106;-57
2022/01/18 07:20:07;;;;;;;;;;;;;;;11.27;52.40;102575.56;4977891;27;99072;-65
2022/01/18 07:22:34;;;;;;;;;;;;;;;11.27;52.50;102565.59;4978901;27;111564;-56
2022/01/18 07:25:02;;;;;;;;;;;;;;;11.30;52.33;102570.56;4978810;27;97928;-57
2022/01/18 07:27:27;;;;;;;;;;;;;;;11.31;52.32;102572.22;4979471;27;99259;-64
2022/01/18 07:29:53;;;;;;;;;;;;;;;11.33;52.52;102563.91;4976470;28;125702;-57
2022/01/18 07:32:20;;;;;;;;;;;;;;;11.37;52.35;102581.31;4977801;28;116814;-57
2022/01/18 07:34:52;;;;;;;;;;;;;;;11.38;52.35;102571.34;4979549;27;98469;-64
2022/01/18 07:37:19;;;;;;;;;;;;;;;11.41;52.38;102589.81;4977959;28;101213;-57
2022/01/18 07:39:45;;;;;;;;;;;;;;;11.43;52.14;102596.63;4978896;27;97972;-64
2022/01/18 07:42:11;;;;;;;;;;;;;;;11.46;52.27;102592.66;4979300;28;97878;-64
2022/01/18 07:44:37;;;;;;;;;;;;;;;11.49;52.51;102597.63;4977724;27;127945;-65
2022/01/18 07:47:03;;;;;;;;;;;;;;;11.51;52.31;102588.25;4977737;28;129069;-64
2022/01/18 07:49:29;;;;;;;;;;;;;;;11.54;52.83;102586.97;4977822;28;126194;-64
2022/01/18 07:51:55;;;;;;;;;;;;;;;11.57;52.84;102591.94;4978372;28;117457;-65
2022/01/18 07:54:21;;;;;;;;;;;;;;;11.60;52.61;102598.78;4977687;28;128286;-64
2022/01/18 07:56:47;;;;;;;;;;;;;;;11.63;52.63;102593.75;4976644;28;98147;-64
2022/01/18 07:59:13;;;;;;;;;;;;;;;11.67;52.50;102603.06;4977464;28;100043;-64
2022/01/18 08:01:39;;;;;;;;;;;;;;;11.71;52.23;102606.97;4976064;27;117932;-64
2022/01/18 08:04:05;;;;;;;;;;;;;;;11.74;52.57;102609.19;4978083;28;98501;-64
2022/01/18 08:06:31;;;;;;;;;;;;;;;11.77;52.33;102606.06;4975731;27;128892;-65
2022/01/18 08:08:57;;;;;;;;;;;;;;;11.79;52.63;102606.69;4975767;28;121236;-65
2022/01/18 08:11:22;;;;;;;;;;;;;;;11.84;52.41;102611.44;4977265;27;118501;-65
2022/01/18 08:13:50;;;;;;;;;;;;;;;11.86;52.27;102625.53;4977456;28;126296;-64
2022/01/18 08:18:59;;;;;;;;;;;;;;;11.94;52.60;102619.00;4975236;27;98533;-65
2022/01/18 08:21:25;;;;;;;;;;;;;;;11.96;52.09;102625.84;4978527;27;98025;-64
2022/01/18 08:23:51;;;;;;;;;;;;;;;11.98;52.69;102633.72;4978087;28;114435;-65
2022/01/18 08:26:17;;;;;;;;;;;;;;;11.99;52.67;102636.22;4978248;27;123051;-64
2022/01/18 08:28:43;;;;;;;;;;;;;;;12.05;52.75;102629.09;4975638;28;100320;-66
2022/01/18 08:31:09;;;;;;;;;;;;;;;12.11;52.42;102630.91;4976563;27;109016;-65
2022/01/18 08:33:35;;;;;;;;;;;;;;;12.15;52.66;102640.22;4978083;28;99590;-65
2022/01/18 08:36:03;;;;;;;;;;;;;;;12.18;52.64;102647.88;4977502;27;99537;-64
2022/01/18 08:38:30;;;;;;;;;;;;;;;12.23;52.88;102641.78;4976709;27;98655;-64
2022/01/18 08:40:56;;;;;;;;;;;;;;;12.33;52.56;102638.53;4977754;27;111214;-65
2022/01/18 08:43:22;;;;;;;;;;;;;;;12.37;52.76;102642.44;4977801;27;98850;-65
2022/01/18 08:45:48;;;;;;;;;;;;;;;12.38;52.91;102658.47;4977391;27;117659;-64
2022/01/18 08:48:14;;;;;;;;;;;;;;;12.41;52.88;102652.56;4978030;28;126594;-64
2022/01/18 08:50:40;;;;;;;;;;;;;;;12.44;52.79;102654.00;4976334;28;117077;-64
2022/01/18 08:53:06;;;;;;;;;;;;;;;12.48;52.98;102666.03;4977133;28;125906;-65
2022/01/18 08:55:34;;;;;;;;;;;;;;;12.52;52.86;102676.16;4975088;27;98039;-64
2022/01/18 08:58:02;;;;;;;;;;;;;;;12.58;52.82;102673.63;4977726;28;98753;-65
2022/01/18 09:00:28;;;;;;;;;;;;;;;12.67;52.71;102677.66;4977175;28;107577;-65
2022/01/18 09:02:53;;;;;;;;;;;;;;;12.81;52.82;102665.63;4974122;28;112783;-65
2022/01/18 09:05:22;;;;;;;;;;;;;;;12.94;52.55;102656.47;4976573;27;127301;-65
2022/01/18 09:07:49;;;;;;;;;;;;;;;13.08;52.40;102652.50;4978273;28;98496;-65
2022/01/18 09:10:15;;;;;;;;;;;;;;;13.12;52.45;102660.97;4977706;27;98066;-64
2022/01/18 09:12:41;;;;;;;;;;;;;;;13.13;52.75;102660.78;4976741;28;98224;-64
2022/01/18 09:15:08;;;;;;;;;;;;;;;13.21;52.70;102665.84;4976760;27;100681;-65
2022/01/18 09:17:35;;;;;;;;;;;;;;;13.33;52.48;102675.94;4977559;27;99066;-65
2022/01/18 09:20:06;;;;;;;;;;;;;;;13.38;52.60;102676.88;4977199;27;98066;-64
2022/01/18 09:22:34;;;;;;;;;;;;;;;13.45;52.55;102676.78;4977507;28;98334;-57
2022/01/18 09:25:02;;;;;;;;;;;;;;;13.58;52.25;102684.66;4976276;27;100192;-57
2022/01/18 09:27:28;;;;;;;;;;;;;;;13.63;52.47;102678.53;4975105;27;121296;-57
2022/01/18 09:29:54;;;;;;;;;;;;;;;13.67;52.46;102677.84;4977166;27;107715;-57
2022/01/18 09:32:21;;;;;;;;;;;;;;;13.83;52.45;102692.56;4974566;28;128104;-58
2022/01/18 09:34:46;;;;;;;;;;;;;;;13.94;52.51;102680.09;4976607;27;98883;-57
2022/01/18 09:37:12;;;;;;;;;;;;;;;14.06;52.12;102688.22;4975584;28;128035;-57
2022/01/18 09:39:39;;;;;;;;;;;;;;;14.11;52.13;102689.16;4976244;28;102860;-57
2022/01/18 09:42:05;;;;;;;;;;;;;;;14.17;52.33;102690.09;4976909;28;99274;-58
2022/01/18 09:44:31;;;;;;;;;;;;;;;14.30;52.33;102689.00;4975733;28;99154;-57
2022/01/18 09:46:57;;;;;;;;;;;;;;;14.37;52.05;102684.28;4974881;28;114490;-57
2022/01/18 09:49:24;;;;;;;;;;;;;;;14.39;52.54;102693.84;4974869;28;117926;-58
2022/01/18 09:51:50;;;;;;;;;;;;;;;14.43;52.18;102692.28;4975750;28;98470;-57
2022/01/18 09:54:17;;;;;;;;;;;;;;;14.53;52.60;102688.16;4975263;27;124700;-57
2022/01/18 09:56:43;;;;;;;;;;;;;;;14.62;52.46;102690.28;4975855;27;102697;-57
2022/01/18 09:59:09;;;;;;;;;;;;;;;14.61;52.36;102691.31;4975965;28;104689;-58
2022/01/18 10:01:35;;;;;;;;;;;;;;;14.75;52.02;102688.34;4975571;28;98217;-57
2022/01/18 10:04:16;;;;;;;;;;;;;;;14.73;52.68;102683.97;4975967;28;98353;-57
2022/01/18 10:06:42;;;;;;;;;;;;;;;14.73;52.72;102683.13;4975876;27;98110;-57
2022/01/18 10:09:15;;;;;;;;;;;;;;;14.84;52.19;102687.69;4976334;27;97943;-57
2022/01/18 10:12:10;;;;;;;;;;;;;;;14.83;52.48;102680.63;4975466;27;106207;-58
2022/01/18 10:14:41;;;;;;;;;;;;;;;14.88;52.56;102686.16;4975452;27;97814;-58
2022/01/18 10:17:07;;;;;;;;;;;;;;;14.98;52.60;102686.34;4975367;28;98618;-57
2022/01/18 10:19:48;;;;;;;;;;;;;;;15.02;52.57;102702.97;4976385;27;98076;-57
2022/01/18 10:22:25;;;;;;;;;;;;;;;15.04;52.43;102700.00;4976375;27;99232;-57
2022/01/18 10:24:52;;;;;;;;;;;;;;;15.10;52.46;102690.91;4976189;28;98507;-57
2022/01/18 10:27:18;;;;;;;;;;;;;;;15.12;52.59;102692.28;4976208;28;98210;-57
2022/01/18 10:29:47;;;;;;;;;;;;;;;15.24;52.57;102681.34;4975191;28;97788;-57
2022/01/18 10:32:20;;;;;;;;;;;;;;;15.33;52.54;102682.63;4976048;27;98730;-58
2022/01/18 10:37:20;;;;;;;;;;;;;;;15.54;52.54;102685.66;4972715;28;98361;-57
2022/01/18 10:39:51;;;;;;;;;;;;;;;15.62;52.48;102688.78;4974299;27;112466;-57
2022/01/18 10:42:30;;;;;;;;;;;;;;;15.59;52.61;102694.72;4975536;28;98929;-58
2022/01/18 10:45:03;;;;;;;;;;;;;;;15.54;52.62;102689.22;4975538;28;98245;-57
2022/01/18 10:47:29;;;;;;;;;;;;;;;15.55;52.83;102698.19;4977138;28;98636;-58
2022/01/18 10:49:56;;;;;;;;;;;;;;;15.59;52.57;102697.44;4976685;27;112590;-57
2022/01/18 10:52:24;;;;;;;;;;;;;;;15.62;52.56;102691.50;4967974;28;99207;-58
2022/01/18 10:54:57;;;;;;;;;;;;;;;15.57;52.80;102694.16;4975081;27;98540;-57
2022/01/18 10:57:25;;;;;;;;;;;;;;;15.55;53.28;102695.47;4975706;27;97969;-58
2022/01/18 11:00:09;;;;;;;;;;;;;;;15.55;53.17;102681.88;4974163;28;98078;-57
2022/01/18 11:02:39;;;;;;;;;;;;;;;15.58;52.95;102673.22;4978150;27;100074;-65
2022/01/18 11:05:23;;;;;;;;;;;;;;;15.55;53.21;102679.16;4977751;27;98809;-64
2022/01/18 11:07:50;;;;;;;;;;;;;;;15.50;53.02;102673.66;4977931;28;98197;-65
2022/01/18 11:10:21;;;;;;;;;;;;;;;15.54;53.37;102675.63;4979547;27;98185;-58
2022/01/18 11:13:44;;;;;;;;;;;;;;;15.52;53.16;102675.03;4979827;28;108119;-57
2022/01/18 11:16:01;;;;;;;;;;;;;;;15.54;53.36;102672.91;4976291;27;99232;-57
2022/01/18 11:18:35;;;;;;;;;;;;;;;15.65;53.36;102684.81;4976026;28;99217;-58
2022/01/18 11:21:02;;;;;;;;;;;;;;;15.71;53.30;102673.72;4978261;27;98276;-65
2022/01/18 11:23:30;;;;;;;;;;;;;;;15.81;52.88;102667.63;4977315;28;98400;-57
2022/01/18 11:25:58;;;;;;;;;;;;;;;15.81;52.91;102667.63;4978837;27;98007;-57
2022/01/18 11:28:24;;;;;;;;;;;;;;;15.69;53.22;102673.19;4979385;28;99763;-57
2022/01/18 11:30:50;;;;;;;;;;;;;;;15.58;53.95;102670.50;4959803;28;109777;-65
2022/01/18 11:33:17;;;;;;;;;;;;;;;15.49;53.83;102670.13;4978457;28;111004;-58
2022/01/18 11:35:54;;;;;;;;;;;;;;;15.43;53.77;102671.09;4979163;27;115933;-58
2022/01/18 11:38:41;;;;;;;;;;;;;;;15.41;54.14;102671.34;4979470;27;98244;-57
2022/01/18 11:41:10;;;;;;;;;;;;;;;15.41;53.98;102679.50;4979486;27;98256;-58
2022/01/18 11:43:41;;;;;;;;;;;;;;;15.41;54.12;102678.69;4960770;28;98649;-57
2022/01/18 11:46:26;;;;;;;;;;;;;;;15.35;54.10;102675.03;4978348;27;99105;-57
2022/01/18 11:48:59;;;;;;;;;;;;;;;15.30;54.14;102677.66;4975742;28;99929;-65
2022/01/18 11:51:39;;;;;;;;;;;;;;;15.27;54.24;102682.78;4980098;27;97870;-65
2022/01/18 11:54:35;;;;;;;;;;;;;;;15.23;54.27;102682.44;4976044;28;98762;-65
2022/01/18 11:57:22;;;;;;;;;;;;;;;15.20;53.87;102677.50;4979752;27;98524;-57
2022/01/18 11:59:49;;;;;;;;;;;;;;;15.16;54.19;102674.44;4964199;27;98539;-65
2022/01/18 12:02:30;;;;;;;;;;;;;;;15.16;54.54;102682.59;4979766;27;98242;-58
2022/01/18 12:04:58;;;;;;;;;;;;;;;15.15;54.48;102693.69;4979940;27;98219;-64
2022/01/18 12:07:33;;;;;;;;;;;;;;;15.15;54.17;102686.38;4979017;28;98588;-58
2022/01/18 12:09:59;;;;;;;;;;;;;;;15.22;54.34;102686.22;4978427;27;97828;-65
2022/01/18 12:12:49;;;;;;;;;;;;;;;15.25;54.32;102683.03;4978083;27;98362;-58
2022/01/18 12:15:24;;;;;;;;;;;;;;;15.27;54.12;102689.03;4978746;27;99139;-64
2022/01/18 12:17:54;;;;;;;;;;;;;;;15.26;54.17;102692.81;4977863;28;98876;-57
2022/01/18 12:20:35;;;;;;;;;;;;;;;15.23;54.50;102690.59;4977630;27;98759;-65
2022/01/18 12:23:02;;;;;;;;;;;;;;;15.23;54.28;102687.88;4978761;27;98289;-57
2022/01/18 12:25:31;;;;;;;;;;;;;;;15.21;54.24;102684.59;4979137;28;98291;-65
2022/01/18 12:28:02;;;;;;;;;;;;;;;15.19;54.30;102684.00;4978400;27;98399;-58
2022/01/18 12:30:53;;;;;;;;;;;;;;;15.16;54.40;102681.75;4978498;27;98524;-66
2022/01/18 12:33:19;;;;;;;;;;;;;;;15.14;54.52;102676.59;4977727;28;98342;-58
2022/01/18 12:35:45;;;;;;;;;;;;;;;15.17;54.77;102673.38;4977940;27;98369;-64
2022/01/18 12:38:23;;;;;;;;;;;;;;;15.18;54.33;102669.59;4978398;28;99064;-58
2022/01/18 12:40:49;;;;;;;;;;;;;;;15.20;54.28;102663.91;4977446;27;101826;-63
2022/01/18 12:45:42;;;;;;;;;;;;;;;15.16;54.67;102671.72;4974965;27;98328;-57
2022/01/18 12:48:10;;;;;;;;;;;;;;;15.16;54.44;102662.75;4978093;28;99154;-57
2022/01/18 12:50:37;;;;;;;;;;;;;;;15.15;54.56;102656.50;4977547;27;97999;-57
2022/01/18 12:53:08;;;;;;;;;;;;;;;15.17;54.61;102667.13;4978986;28;98199;-58
2022/01/18 12:55:45;;;;;;;;;;;;;;;15.17;54.84;102667.94;4977272;28;98646;-58
2022/01/18 12:58:19;;;;;;;;;;;;;;;15.15;54.57;102667.34;4978123;28;98737;-64
2022/01/18 13:00:56;;;;;;;;;;;;;;;15.11;54.93;102666.19;4977295;27;98280;-65
2022/01/18 13:03:35;;;;;;;;;;;;;;;15.08;54.91;102666.69;4978630;27;98283;-58
2022/01/18 13:06:06;;;;;;;;;;;;;;;15.05;54.80;102669.91;4977746;27;99304;-65
2022/01/18 13:08:46;;;;;;;;;;;;;;;15.03;55.00;102674.75;4968188;27;99284;-64
2022/01/18 13:11:16;;;;;;;;;;;;;;;14.97;54.84;102684.72;4979378;27;98971;-57
2022/01/18 13:13:49;;;;;;;;;;;;;;;14.92;55.20;102689.19;4977110;27;98076;-57
2022/01/18 13:26:45;;;;;;;;;;;;;;;14.86;55.23;102687.47;4983307;27;100564;-57
2022/01/18 13:29:20;;;;;;;;;;;;;;;14.84;54.87;102686.88;4978577;27;98628;-57
2022/01/18 13:31:48;;;;;;;;;;;;;;;14.79;55.34;102676.75;4977741;27;98117;-65
2022/01/18 13:34:15;;;;;;;;;;;;;;;14.77;55.35;102670.72;4977984;28;98103;-65
2022/01/18 13:36:59;;;;;;;;;;;;;;;14.75;55.14;102669.34;4975325;27;98892;-65
2022/01/18 13:39:29;;;;;;;;;;;;;;;14.67;55.59;102663.22;4969594;27;98666;-64
2022/01/18 13:41:55;;;;;;;;;;;;;;;14.67;55.27;102662.41;4980286;27;98088;-57
2022/01/18 13:44:22;;;;;;;;;;;;;;;14.63;55.39;102664.78;4976902;28;100270;-58
2022/01/18 13:46:48;;;;;;;;;;;;;;;14.59;55.64;102669.03;4975063;28;99607;-57
2022/01/18 13:49:14;;;;;;;;;;;;;;;14.57;55.49;102670.34;4974879;28;98638;-58
2022/01/18 13:51:40;;;;;;;;;;;;;;;14.53;55.36;102666.44;4977171;27;99019;-65
2022/01/18 13:54:08;;;;;;;;;;;;;;;14.49;55.28;102671.53;4977950;28;98041;-65
2022/01/18 13:56:43;;;;;;;;;;;;;;;14.46;55.42;102675.53;4976087;27;99181;-57
2022/01/18 13:59:08;;;;;;;;;;;;;;;14.44;55.40;102677.66;4973620;28;115648;-58
2022/01/18 14:01:38;;;;;;;;;;;;;;;14.42;55.68;102678.94;4975394;28;127574;-64
2022/01/18 14:04:19;;;;;;;;;;;;;;;14.39;55.30;102679.44;4975653;28;107506;-64